sensor_id;sensor_type;location;lat;lon;timestamp;P1;P2;P0
45312;PMS7003;68267;51.540;5.854;2023-08-17T00:04:02;3.48;4.48;4.15
45312;PMS7003;68267;51.540;5.854;2023-08-17T00:17:22;1.68;4.8;3.82
45312;PMS7003;68267;51.540;5.854;2023-08-17T00:30:42;1.2;4.37;3.61
45312;PMS7003;68267;51.540;5.854;2023-08-17T00:44:01;0.96;4.15;3.71
45312;PMS7003;68267;51.540;5.854;2023-08-17T00:57:21;0.84;4.04;3.71
45312;PMS7003;68267;51.540;5.854;2023-08-17T01:10:41;0.6;3.82;3.61
45312;PMS7003;68267;51.540;5.854;2023-08-17T01:24:00;0.48;3.71;3.5
45312;PMS7003;68267;51.540;5.854;2023-08-17T01:37:20;0.84;4.04;3.82
45312;PMS7003;68267;51.540;5.854;2023-08-17T01:50:40;0.48;3.71;3.61
45312;PMS7003;68267;51.540;5.854;2023-08-17T02:04:00;2.04;5.13;3.82
45312;PMS7003;68267;51.540;5.854;2023-08-17T02:17:20;3.6;5.35;4.8
45312;PMS7003;68267;51.540;5.854;2023-08-17T02:30:39;8.89;4.7;4.15
45312;PMS7003;68267;51.540;5.854;2023-08-17T02:43:59;2.4;5.46;4.7
45312;PMS7003;68267;51.540;5.854;2023-08-17T02:57:19;1.92;5.02;4.37
45312;PMS7003;68267;51.540;5.854;2023-08-17T03:10:38;1.8;4.91;4.7
45312;PMS7003;68267;51.540;5.854;2023-08-17T03:23:58;7.09;5.68;4.7
45312;PMS7003;68267;51.540;5.854;2023-08-17T03:37:18;6.97;4.91;4.7
45312;PMS7003;68267;51.540;5.854;2023-08-17T03:50:38;6.73;5.68;5.35
45312;PMS7003;68267;51.540;5.854;2023-08-17T04:03:58;2.4;5.46;4.48
45312;PMS7003;68267;51.540;5.854;2023-08-17T04:17:17;1.08;4.26;4.04
45312;PMS7003;68267;51.540;5.854;2023-08-17T04:30:37;1.92;5.02;4.7
45312;PMS7003;68267;51.540;5.854;2023-08-17T04:43:57;2.52;5.57;5.02
45312;PMS7003;68267;51.540;5.854;2023-08-17T04:57:16;2.88;5.9;5.57
45312;PMS7003;68267;51.540;5.854;2023-08-17T05:10:36;5.05;6.77;5.57
45312;PMS7003;68267;51.540;5.854;2023-08-17T05:23:56;2.64;5.68;5.02
45312;PMS7003;68267;51.540;5.854;2023-08-17T05:37:15;3.12;6.11;5.35
45312;PMS7003;68267;51.540;5.854;2023-08-17T05:50:35;3.73;6.66;5.35
45312;PMS7003;68267;51.540;5.854;2023-08-17T06:03:55;3.6;6.55;5.46
45312;PMS7003;68267;51.540;5.854;2023-08-17T06:17:15;3.36;6.33;5.68
45312;PMS7003;68267;51.540;5.854;2023-08-17T06:30:34;6.25;6.0;5.57
45312;PMS7003;68267;51.540;5.854;2023-08-17T06:43:54;5.41;6.22;5.57
45312;PMS7003;68267;51.540;5.854;2023-08-17T06:57:14;3.48;6.44;5.24
45312;PMS7003;68267;51.540;5.854;2023-08-17T07:10:33;2.52;5.57;5.02
45312;PMS7003;68267;51.540;5.854;2023-08-17T07:23:53;6.37;5.68;5.02
45312;PMS7003;68267;51.540;5.854;2023-08-17T07:37:13;2.76;5.79;4.7
45312;PMS7003;68267;51.540;5.854;2023-08-17T07:50:32;2.4;5.46;4.91
45312;PMS7003;68267;51.540;5.854;2023-08-17T08:03:52;8.05;6.0;5.02
45312;PMS7003;68267;51.540;5.854;2023-08-17T08:17:11;3.24;6.22;5.24
45312;PMS7003;68267;51.540;5.854;2023-08-17T08:30:31;3.24;6.22;4.91
45312;PMS7003;68267;51.540;5.854;2023-08-17T08:43:51;6.01;6.88;5.57
45312;PMS7003;68267;51.540;5.854;2023-08-17T08:57:10;8.77;9.71;6.77
45312;PMS7003;68267;51.540;5.854;2023-08-17T09:10:30;6.01;8.73;7.42
45312;PMS7003;68267;51.540;5.854;2023-08-17T09:23:49;27.85;11.89;8.51
45312;PMS7003;68267;51.540;5.854;2023-08-17T09:37:09;8.65;9.82;8.4
45312;PMS7003;68267;51.540;5.854;2023-08-17T09:50:29;12.73;11.78;9.38
45312;PMS7003;68267;51.540;5.854;2023-08-17T10:03:49;8.53;11.02;9.17
45312;PMS7003;68267;51.540;5.854;2023-08-17T10:17:08;11.89;11.13;9.93
45312;PMS7003;68267;51.540;5.854;2023-08-17T10:30:28;9.01;11.45;9.93
45312;PMS7003;68267;51.540;5.854;2023-08-17T10:43:48;9.97;11.13;9.6
45312;PMS7003;68267;51.540;5.854;2023-08-17T10:57:07;9.25;11.67;9.38
45312;PMS7003;68267;51.540;5.854;2023-08-17T11:10:27;6.73;9.38;8.73
45312;PMS7003;68267;51.540;5.854;2023-08-17T11:23:47;6.73;9.38;8.62
45312;PMS7003;68267;51.540;5.854;2023-08-17T11:37:07;8.89;11.35;9.71
45312;PMS7003;68267;51.540;5.854;2023-08-17T11:50:26;9.25;11.67;10.04
45312;PMS7003;68267;51.540;5.854;2023-08-17T12:03:46;12.85;12.54;10.91
45312;PMS7003;68267;51.540;5.854;2023-08-17T12:17:06;12.37;12.98;11.35
45312;PMS7003;68267;51.540;5.854;2023-08-17T12:30:26;9.61;12.0;10.8
45312;PMS7003;68267;51.540;5.854;2023-08-17T12:43:45;9.49;11.89;11.24
45312;PMS7003;68267;51.540;5.854;2023-08-17T12:57:05;13.21;12.54;11.35
45312;PMS7003;68267;51.540;5.854;2023-08-17T13:10:25;12.73;13.53;12.65
45312;PMS7003;68267;51.540;5.854;2023-08-17T13:23:45;11.89;12.44;11.89
45312;PMS7003;68267;51.540;5.854;2023-08-17T13:37:04;10.33;12.65;11.89
45312;PMS7003;68267;51.540;5.854;2023-08-17T13:50:24;13.33;14.29;13.42
45312;PMS7003;68267;51.540;5.854;2023-08-17T14:03:43;12.25;14.4;13.31
45312;PMS7003;68267;51.540;5.854;2023-08-17T14:17:03;13.81;14.07;13.42
45312;PMS7003;68267;51.540;5.854;2023-08-17T14:30:23;14.53;14.62;13.09
45312;PMS7003;68267;51.540;5.854;2023-08-17T14:43:43;13.33;14.62;13.74
45312;PMS7003;68267;51.540;5.854;2023-08-17T14:57:02;13.09;15.16;14.62
45312;PMS7003;68267;51.540;5.854;2023-08-17T15:10:22;22.09;15.16;14.18
45312;PMS7003;68267;51.540;5.854;2023-08-17T15:23:42;21.97;17.23;15.38
45312;PMS7003;68267;51.540;5.854;2023-08-17T15:37:02;15.01;16.14;14.83
45312;PMS7003;68267;51.540;5.854;2023-08-17T15:50:21;13.93;15.92;14.94
45312;PMS7003;68267;51.540;5.854;2023-08-17T16:03:41;13.57;15.6;14.62
45312;PMS7003;68267;51.540;5.854;2023-08-17T16:17:01;15.97;17.78;16.9
45312;PMS7003;68267;51.540;5.854;2023-08-17T16:30:21;16.09;15.6;15.16
45312;PMS7003;68267;51.540;5.854;2023-08-17T16:43:40;15.13;17.01;15.6
45312;PMS7003;68267;51.540;5.854;2023-08-17T16:57:00;17.29;17.34;16.25
45312;PMS7003;68267;51.540;5.854;2023-08-17T17:10:20;15.61;17.45;16.36
45312;PMS7003;68267;51.540;5.854;2023-08-17T17:23:40;14.89;16.8;15.27
45312;PMS7003;68267;51.540;5.854;2023-08-17T17:37:00;14.53;16.47;15.38
45312;PMS7003;68267;51.540;5.854;2023-08-17T17:50:20;15.49;17.34;16.47
45312;PMS7003;68267;51.540;5.854;2023-08-17T18:03:39;16.57;17.89;17.23
45312;PMS7003;68267;51.540;5.854;2023-08-17T18:16:59;17.29;18.98;18.32
45312;PMS7003;68267;51.540;5.854;2023-08-17T18:30:19;17.29;18.98;18.54
45312;PMS7003;68267;51.540;5.854;2023-08-17T18:43:39;18.37;19.96;19.08
45312;PMS7003;68267;51.540;5.854;2023-08-17T18:56:58;18.13;19.74;19.19
45312;PMS7003;68267;51.540;5.854;2023-08-17T19:10:18;18.85;20.39;19.41
45312;PMS7003;68267;51.540;5.854;2023-08-17T19:23:38;19.33;20.83;20.28
45312;PMS7003;68267;51.540;5.854;2023-08-17T19:36:58;20.77;22.14;21.16
45312;PMS7003;68267;51.540;5.854;2023-08-17T19:50:18;21.97;21.81;20.72
45312;PMS7003;68267;51.540;5.854;2023-08-17T20:03:37;20.65;22.03;21.48
45312;PMS7003;68267;51.540;5.854;2023-08-17T20:16:57;19.69;21.16;20.61
45312;PMS7003;68267;51.540;5.854;2023-08-17T20:30:17;19.57;21.05;20.83
45312;PMS7003;68267;51.540;5.854;2023-08-17T20:43:37;18.13;19.74;19.08
45312;PMS7003;68267;51.540;5.854;2023-08-17T20:56:56;18.37;19.96;19.19
45312;PMS7003;68267;51.540;5.854;2023-08-17T21:10:16;18.25;19.85;19.41
45312;PMS7003;68267;51.540;5.854;2023-08-17T21:23:35;17.41;19.08;18.43
45312;PMS7003;68267;51.540;5.854;2023-08-17T21:36:55;15.85;17.67;17.12
45312;PMS7003;68267;51.540;5.854;2023-08-17T21:50:15;14.65;16.58;16.03
45312;PMS7003;68267;51.540;5.854;2023-08-17T22:03:34;13.69;15.71;15.05
45312;PMS7003;68267;51.540;5.854;2023-08-17T22:16:54;13.69;15.71;15.05
